sensor_id;sensor_type;location;lat;lon;timestamp;P1;durP1;ratioP1;P2;durP2;ratioP2
9834;SDS011;69850;50.942;13.748;2023-07-16T00:02:46;6.00;;;4.00;;
9834;SDS011;69850;50.942;13.748;2023-07-16T00:06:07;7.50;;;3.85;;
9834;SDS011;69850;50.942;13.748;2023-07-16T00:09:28;5.03;;;4.05;;
9834;SDS011;69850;50.942;13.748;2023-07-16T00:12:49;7.80;;;4.47;;
9834;SDS011;69850;50.942;13.748;2023-07-16T00:16:09;10.77;;;4.13;;
9834;SDS011;69850;50.942;13.748;2023-07-16T00:19:30;6.97;;;4.20;;
9834;SDS011;69850;50.942;13.748;2023-07-16T00:22:52;7.30;;;4.05;;
9834;SDS011;69850;50.942;13.748;2023-07-16T00:26:13;9.57;;;3.72;;
9834;SDS011;69850;50.942;13.748;2023-07-16T00:29:34;6.88;;;4.03;;
9834;SDS011;69850;50.942;13.748;2023-07-16T00:32:54;6.63;;;3.80;;
9834;SDS011;69850;50.942;13.748;2023-07-16T00:36:15;10.57;;;3.97;;
9834;SDS011;69850;50.942;13.748;2023-07-16T00:39:36;6.63;;;3.95;;
9834;SDS011;69850;50.942;13.748;2023-07-16T00:42:56;5.57;;;3.47;;
9834;SDS011;69850;50.942;13.748;2023-07-16T00:46:17;6.45;;;3.83;;
9834;SDS011;69850;50.942;13.748;2023-07-16T00:49:38;5.35;;;3.53;;
9834;SDS011;69850;50.942;13.748;2023-07-16T00:52:59;8.57;;;3.83;;
9834;SDS011;69850;50.942;13.748;2023-07-16T00:56:20;8.18;;;3.95;;
9834;SDS011;69850;50.942;13.748;2023-07-16T00:59:42;8.57;;;3.95;;
9834;SDS011;69850;50.942;13.748;2023-07-16T01:03:04;5.13;;;3.60;;
9834;SDS011;69850;50.942;13.748;2023-07-16T01:06:35;5.13;;;3.17;;
9834;SDS011;69850;50.942;13.748;2023-07-16T01:09:58;5.45;;;3.63;;
9834;SDS011;69850;50.942;13.748;2023-07-16T01:13:19;5.13;;;3.50;;
9834;SDS011;69850;50.942;13.748;2023-07-16T01:16:40;5.32;;;3.22;;
9834;SDS011;69850;50.942;13.748;2023-07-16T01:20:01;5.18;;;2.90;;
9834;SDS011;69850;50.942;13.748;2023-07-16T01:27:17;9.18;;;5.13;;
9834;SDS011;69850;50.942;13.748;2023-07-16T01:30:48;3.60;;;2.10;;
9834;SDS011;69850;50.942;13.748;2023-07-16T01:34:11;4.95;;;2.20;;
9834;SDS011;69850;50.942;13.748;2023-07-16T01:37:32;3.35;;;2.00;;
9834;SDS011;69850;50.942;13.748;2023-07-16T01:40:53;3.25;;;1.85;;
9834;SDS011;69850;50.942;13.748;2023-07-16T01:44:13;3.00;;;1.65;;
9834;SDS011;69850;50.942;13.748;2023-07-16T01:51:19;2.25;;;1.63;;
9834;SDS011;69850;50.942;13.748;2023-07-16T01:54:40;1.83;;;1.55;;
9834;SDS011;69850;50.942;13.748;2023-07-16T01:58:01;2.85;;;1.58;;
9834;SDS011;69850;50.942;13.748;2023-07-16T02:01:22;2.50;;;1.60;;
9834;SDS011;69850;50.942;13.748;2023-07-16T02:04:43;2.92;;;1.65;;
9834;SDS011;69850;50.942;13.748;2023-07-16T02:08:04;2.90;;;1.70;;
9834;SDS011;69850;50.942;13.748;2023-07-16T02:11:27;2.92;;;1.50;;
9834;SDS011;69850;50.942;13.748;2023-07-16T02:14:47;2.20;;;1.40;;
9834;SDS011;69850;50.942;13.748;2023-07-16T02:18:08;1.80;;;1.35;;
9834;SDS011;69850;50.942;13.748;2023-07-16T02:21:29;1.48;;;1.35;;
9834;SDS011;69850;50.942;13.748;2023-07-16T02:24:50;3.42;;;1.30;;
9834;SDS011;69850;50.942;13.748;2023-07-16T02:28:11;2.13;;;1.40;;
9834;SDS011;69850;50.942;13.748;2023-07-16T02:31:32;2.65;;;1.40;;
9834;SDS011;69850;50.942;13.748;2023-07-16T02:34:52;1.33;;;1.23;;
9834;SDS011;69850;50.942;13.748;2023-07-16T02:38:14;1.45;;;1.33;;
9834;SDS011;69850;50.942;13.748;2023-07-16T02:41:35;3.17;;;1.20;;
9834;SDS011;69850;50.942;13.748;2023-07-16T02:44:55;1.33;;;1.23;;
9834;SDS011;69850;50.942;13.748;2023-07-16T02:48:16;3.42;;;1.30;;
9834;SDS011;69850;50.942;13.748;2023-07-16T02:51:36;1.20;;;1.10;;
9834;SDS011;69850;50.942;13.748;2023-07-16T02:54:57;4.95;;;1.77;;
9834;SDS011;69850;50.942;13.748;2023-07-16T02:58:18;5.32;;;2.03;;
9834;SDS011;69850;50.942;13.748;2023-07-16T03:01:38;4.97;;;1.88;;
9834;SDS011;69850;50.942;13.748;2023-07-16T03:04:59;7.00;;;1.65;;
9834;SDS011;69850;50.942;13.748;2023-07-16T03:08:20;4.05;;;1.80;;
9834;SDS011;69850;50.942;13.748;2023-07-16T03:11:40;3.17;;;1.90;;
9834;SDS011;69850;50.942;13.748;2023-07-16T03:15:01;3.70;;;1.85;;
9834;SDS011;69850;50.942;13.748;2023-07-16T03:18:22;2.20;;;1.80;;
9834;SDS011;69850;50.942;13.748;2023-07-16T03:21:42;5.75;;;2.03;;
9834;SDS011;69850;50.942;13.748;2023-07-16T03:25:04;4.47;;;2.20;;
9834;SDS011;69850;50.942;13.748;2023-07-16T03:28:25;5.25;;;2.20;;
9834;SDS011;69850;50.942;13.748;2023-07-16T03:31:46;3.33;;;2.60;;
9834;SDS011;69850;50.942;13.748;2023-07-16T03:35:09;5.00;;;2.75;;
9834;SDS011;69850;50.942;13.748;2023-07-16T03:38:30;7.35;;;2.60;;
9834;SDS011;69850;50.942;13.748;2023-07-16T03:41:50;6.15;;;2.40;;
9834;SDS011;69850;50.942;13.748;2023-07-16T03:45:11;6.10;;;2.60;;
9834;SDS011;69850;50.942;13.748;2023-07-16T03:48:32;4.20;;;2.65;;
9834;SDS011;69850;50.942;13.748;2023-07-16T03:51:53;6.40;;;3.15;;
9834;SDS011;69850;50.942;13.748;2023-07-16T03:55:13;6.53;;;3.30;;
9834;SDS011;69850;50.942;13.748;2023-07-16T03:58:34;6.07;;;3.50;;
9834;SDS011;69850;50.942;13.748;2023-07-16T04:01:59;6.07;;;3.20;;
9834;SDS011;69850;50.942;13.748;2023-07-16T04:05:19;5.72;;;3.53;;
9834;SDS011;69850;50.942;13.748;2023-07-16T04:08:40;4.80;;;3.58;;
9834;SDS011;69850;50.942;13.748;2023-07-16T04:12:01;6.80;;;3.60;;
9834;SDS011;69850;50.942;13.748;2023-07-16T04:15:21;4.97;;;3.33;;
9834;SDS011;69850;50.942;13.748;2023-07-16T04:18:42;6.15;;;3.55;;
9834;SDS011;69850;50.942;13.748;2023-07-16T04:22:02;3.88;;;3.10;;
9834;SDS011;69850;50.942;13.748;2023-07-16T04:25:23;3.30;;;3.00;;
9834;SDS011;69850;50.942;13.748;2023-07-16T04:28:44;3.75;;;3.40;;
9834;SDS011;69850;50.942;13.748;2023-07-16T04:32:05;3.95;;;3.47;;
9834;SDS011;69850;50.942;13.748;2023-07-16T04:35:26;5.55;;;3.55;;
9834;SDS011;69850;50.942;13.748;2023-07-16T04:38:46;4.72;;;3.75;;
9834;SDS011;69850;50.942;13.748;2023-07-16T04:42:07;3.53;;;2.63;;
9834;SDS011;69850;50.942;13.748;2023-07-16T04:45:28;3.92;;;2.78;;
9834;SDS011;69850;50.942;13.748;2023-07-16T04:48:48;5.15;;;3.40;;
9834;SDS011;69850;50.942;13.748;2023-07-16T04:52:09;4.45;;;3.30;;
9834;SDS011;69850;50.942;13.748;2023-07-16T04:55:34;3.65;;;2.10;;
9834;SDS011;69850;50.942;13.748;2023-07-16T04:58:56;5.32;;;2.50;;
9834;SDS011;69850;50.942;13.748;2023-07-16T05:02:18;4.18;;;2.67;;
9834;SDS011;69850;50.942;13.748;2023-07-16T05:05:38;3.85;;;2.53;;
9834;SDS011;69850;50.942;13.748;2023-07-16T05:08:59;3.55;;;2.70;;
9834;SDS011;69850;50.942;13.748;2023-07-16T05:12:19;3.42;;;2.50;;
9834;SDS011;69850;50.942;13.748;2023-07-16T05:15:40;3.75;;;2.20;;
9834;SDS011;69850;50.942;13.748;2023-07-16T05:19:01;3.33;;;2.00;;
9834;SDS011;69850;50.942;13.748;2023-07-16T05:22:21;5.10;;;3.25;;
9834;SDS011;69850;50.942;13.748;2023-07-16T05:25:48;4.82;;;4.13;;
9834;SDS011;69850;50.942;13.748;2023-07-16T05:29:09;3.08;;;1.80;;
9834;SDS011;69850;50.942;13.748;2023-07-16T05:32:30;2.25;;;1.90;;
9834;SDS011;69850;50.942;13.748;2023-07-16T05:35:52;2.38;;;1.40;;
9834;SDS011;69850;50.942;13.748;2023-07-16T05:39:13;2.70;;;2.00;;
9834;SDS011;69850;50.942;13.748;2023-07-16T05:42:33;4.25;;;1.98;;
9834;SDS011;69850;50.942;13.748;2023-07-16T05:45:54;2.10;;;1.90;;
9834;SDS011;69850;50.942;13.748;2023-07-16T05:49:15;3.63;;;2.05;;
9834;SDS011;69850;50.942;13.748;2023-07-16T05:52:36;3.25;;;1.67;;
9834;SDS011;69850;50.942;13.748;2023-07-16T05:55:56;3.33;;;2.28;;
9834;SDS011;69850;50.942;13.748;2023-07-16T05:59:17;2.15;;;1.77;;
9834;SDS011;69850;50.942;13.748;2023-07-16T06:02:38;3.47;;;1.77;;
9834;SDS011;69850;50.942;13.748;2023-07-16T06:05:58;5.10;;;1.73;;
9834;SDS011;69850;50.942;13.748;2023-07-16T06:09:19;2.40;;;1.45;;
9834;SDS011;69850;50.942;13.748;2023-07-16T06:12:40;2.80;;;1.30;;
9834;SDS011;69850;50.942;13.748;2023-07-16T06:16:00;1.45;;;1.30;;
9834;SDS011;69850;50.942;13.748;2023-07-16T06:19:21;5.05;;;1.40;;
9834;SDS011;69850;50.942;13.748;2023-07-16T06:22:42;1.40;;;1.30;;
9834;SDS011;69850;50.942;13.748;2023-07-16T06:26:02;1.80;;;1.33;;
9834;SDS011;69850;50.942;13.748;2023-07-16T06:29:23;4.65;;;1.38;;
9834;SDS011;69850;50.942;13.748;2023-07-16T06:32:44;2.28;;;1.40;;
9834;SDS011;69850;50.942;13.748;2023-07-16T06:36:04;1.80;;;1.15;;
9834;SDS011;69850;50.942;13.748;2023-07-16T06:39:25;1.73;;;1.30;;
9834;SDS011;69850;50.942;13.748;2023-07-16T06:42:45;3.15;;;1.30;;
9834;SDS011;69850;50.942;13.748;2023-07-16T06:46:06;5.13;;;1.50;;
9834;SDS011;69850;50.942;13.748;2023-07-16T06:49:27;2.75;;;1.50;;
9834;SDS011;69850;50.942;13.748;2023-07-16T06:52:47;2.95;;;1.75;;
9834;SDS011;69850;50.942;13.748;2023-07-16T06:56:08;2.53;;;1.40;;
9834;SDS011;69850;50.942;13.748;2023-07-16T06:59:29;2.65;;;1.30;;
9834;SDS011;69850;50.942;13.748;2023-07-16T07:02:49;4.53;;;1.30;;
9834;SDS011;69850;50.942;13.748;2023-07-16T07:06:10;3.30;;;1.60;;
9834;SDS011;69850;50.942;13.748;2023-07-16T07:09:31;2.58;;;1.52;;
9834;SDS011;69850;50.942;13.748;2023-07-16T07:12:51;2.78;;;1.75;;
9834;SDS011;69850;50.942;13.748;2023-07-16T07:16:12;2.70;;;1.50;;
9834;SDS011;69850;50.942;13.748;2023-07-16T07:19:33;2.35;;;1.60;;
9834;SDS011;69850;50.942;13.748;2023-07-16T07:22:53;2.58;;;1.60;;
9834;SDS011;69850;50.942;13.748;2023-07-16T07:26:14;1.90;;;1.80;;
9834;SDS011;69850;50.942;13.748;2023-07-16T07:29:35;2.30;;;1.50;;
9834;SDS011;69850;50.942;13.748;2023-07-16T07:32:55;2.17;;;1.50;;
9834;SDS011;69850;50.942;13.748;2023-07-16T07:36:16;3.05;;;1.50;;
9834;SDS011;69850;50.942;13.748;2023-07-16T07:39:37;3.10;;;1.80;;
9834;SDS011;69850;50.942;13.748;2023-07-16T07:42:57;3.88;;;1.55;;
9834;SDS011;69850;50.942;13.748;2023-07-16T07:46:18;3.28;;;1.60;;
9834;SDS011;69850;50.942;13.748;2023-07-16T07:49:39;2.97;;;1.60;;
9834;SDS011;69850;50.942;13.748;2023-07-16T07:52:59;2.83;;;1.60;;
9834;SDS011;69850;50.942;13.748;2023-07-16T07:56:20;3.80;;;1.40;;
9834;SDS011;69850;50.942;13.748;2023-07-16T07:59:41;2.22;;;1.42;;
9834;SDS011;69850;50.942;13.748;2023-07-16T08:03:02;3.25;;;1.70;;
9834;SDS011;69850;50.942;13.748;2023-07-16T08:06:22;8.30;;;1.63;;
9834;SDS011;69850;50.942;13.748;2023-07-16T08:09:43;3.25;;;1.63;;
9834;SDS011;69850;50.942;13.748;2023-07-16T08:13:04;2.85;;;2.00;;
9834;SDS011;69850;50.942;13.748;2023-07-16T08:16:24;3.50;;;1.95;;
9834;SDS011;69850;50.942;13.748;2023-07-16T08:19:45;5.30;;;1.95;;
9834;SDS011;69850;50.942;13.748;2023-07-16T08:23:07;3.85;;;2.00;;
9834;SDS011;69850;50.942;13.748;2023-07-16T08:26:27;4.55;;;1.88;;
9834;SDS011;69850;50.942;13.748;2023-07-16T08:29:48;2.60;;;1.95;;
9834;SDS011;69850;50.942;13.748;2023-07-16T08:33:08;2.42;;;1.80;;
9834;SDS011;69850;50.942;13.748;2023-07-16T08:36:30;3.05;;;1.75;;
9834;SDS011;69850;50.942;13.748;2023-07-16T08:39:51;3.50;;;2.08;;
9834;SDS011;69850;50.942;13.748;2023-07-16T08:43:13;3.33;;;1.60;;
9834;SDS011;69850;50.942;13.748;2023-07-16T08:46:35;2.25;;;1.35;;
9834;SDS011;69850;50.942;13.748;2023-07-16T08:49:56;2.78;;;1.90;;
9834;SDS011;69850;50.942;13.748;2023-07-16T08:53:17;5.82;;;1.88;;
9834;SDS011;69850;50.942;13.748;2023-07-16T08:56:39;4.00;;;1.75;;
9834;SDS011;69850;50.942;13.748;2023-07-16T09:00:00;2.63;;;1.95;;
9834;SDS011;69850;50.942;13.748;2023-07-16T09:03:20;2.15;;;1.55;;
9834;SDS011;69850;50.942;13.748;2023-07-16T09:06:41;5.05;;;1.80;;
9834;SDS011;69850;50.942;13.748;2023-07-16T09:10:02;4.32;;;2.10;;
9834;SDS011;69850;50.942;13.748;2023-07-16T09:13:25;2.47;;;1.80;;
9834;SDS011;69850;50.942;13.748;2023-07-16T09:16:52;3.13;;;1.90;;
9834;SDS011;69850;50.942;13.748;2023-07-16T09:20:17;5.65;;;1.98;;
9834;SDS011;69850;50.942;13.748;2023-07-16T09:23:39;2.90;;;1.95;;
9834;SDS011;69850;50.942;13.748;2023-07-16T09:27:01;4.00;;;1.88;;
9834;SDS011;69850;50.942;13.748;2023-07-16T09:30:22;3.38;;;2.10;;
9834;SDS011;69850;50.942;13.748;2023-07-16T09:33:46;2.50;;;2.08;;
9834;SDS011;69850;50.942;13.748;2023-07-16T09:37:07;2.58;;;1.80;;
9834;SDS011;69850;50.942;13.748;2023-07-16T09:40:28;3.08;;;2.00;;
9834;SDS011;69850;50.942;13.748;2023-07-16T09:43:49;2.35;;;1.90;;
9834;SDS011;69850;50.942;13.748;2023-07-16T09:47:11;3.70;;;1.70;;
9834;SDS011;69850;50.942;13.748;2023-07-16T09:50:32;3.60;;;2.30;;
9834;SDS011;69850;50.942;13.748;2023-07-16T09:53:55;3.88;;;1.95;;
9834;SDS011;69850;50.942;13.748;2023-07-16T09:57:16;3.55;;;1.95;;
9834;SDS011;69850;50.942;13.748;2023-07-16T10:00:37;5.38;;;2.10;;
9834;SDS011;69850;50.942;13.748;2023-07-16T10:03:58;2.70;;;2.10;;
9834;SDS011;69850;50.942;13.748;2023-07-16T10:07:21;4.30;;;1.90;;
9834;SDS011;69850;50.942;13.748;2023-07-16T10:14:12;7.22;;;1.92;;
9834;SDS011;69850;50.942;13.748;2023-07-16T10:17:33;4.07;;;1.90;;
9834;SDS011;69850;50.942;13.748;2023-07-16T10:20:54;3.42;;;1.65;;
9834;SDS011;69850;50.942;13.748;2023-07-16T10:24:17;3.45;;;1.73;;
9834;SDS011;69850;50.942;13.748;2023-07-16T10:27:41;5.95;;;2.10;;
9834;SDS011;69850;50.942;13.748;2023-07-16T10:31:02;3.08;;;1.30;;
9834;SDS011;69850;50.942;13.748;2023-07-16T10:34:22;2.15;;;1.63;;
9834;SDS011;69850;50.942;13.748;2023-07-16T10:37:43;4.80;;;1.92;;
9834;SDS011;69850;50.942;13.748;2023-07-16T10:41:04;4.03;;;1.80;;
9834;SDS011;69850;50.942;13.748;2023-07-16T10:44:25;2.20;;;1.40;;
9834;SDS011;69850;50.942;13.748;2023-07-16T10:47:52;3.65;;;1.83;;
9834;SDS011;69850;50.942;13.748;2023-07-16T10:51:14;3.15;;;1.80;;
9834;SDS011;69850;50.942;13.748;2023-07-16T10:54:36;4.68;;;2.30;;
9834;SDS011;69850;50.942;13.748;2023-07-16T10:57:56;2.55;;;1.77;;
9834;SDS011;69850;50.942;13.748;2023-07-16T11:01:17;4.22;;;1.70;;
9834;SDS011;69850;50.942;13.748;2023-07-16T11:04:39;3.75;;;2.00;;
9834;SDS011;69850;50.942;13.748;2023-07-16T11:08:00;3.67;;;1.80;;
9834;SDS011;69850;50.942;13.748;2023-07-16T11:11:29;5.28;;;2.10;;
9834;SDS011;69850;50.942;13.748;2023-07-16T11:14:51;4.07;;;2.17;;
9834;SDS011;69850;50.942;13.748;2023-07-16T11:18:13;2.92;;;1.80;;
9834;SDS011;69850;50.942;13.748;2023-07-16T11:21:33;5.43;;;2.30;;
9834;SDS011;69850;50.942;13.748;2023-07-16T11:24:56;4.80;;;2.00;;
9834;SDS011;69850;50.942;13.748;2023-07-16T11:28:17;3.60;;;2.05;;
9834;SDS011;69850;50.942;13.748;2023-07-16T11:31:39;3.28;;;2.10;;
9834;SDS011;69850;50.942;13.748;2023-07-16T11:35:02;3.97;;;2.08;;
9834;SDS011;69850;50.942;13.748;2023-07-16T11:38:26;3.88;;;2.35;;
9834;SDS011;69850;50.942;13.748;2023-07-16T11:41:53;5.78;;;2.30;;
9834;SDS011;69850;50.942;13.748;2023-07-16T11:45:19;4.78;;;2.30;;
9834;SDS011;69850;50.942;13.748;2023-07-16T11:48:46;3.55;;;1.90;;
9834;SDS011;69850;50.942;13.748;2023-07-16T11:52:07;3.28;;;2.03;;
9834;SDS011;69850;50.942;13.748;2023-07-16T11:55:28;4.88;;;2.47;;
9834;SDS011;69850;50.942;13.748;2023-07-16T11:58:52;3.83;;;2.03;;
9834;SDS011;69850;50.942;13.748;2023-07-16T12:02:12;3.05;;;1.92;;
9834;SDS011;69850;50.942;13.748;2023-07-16T12:05:33;2.83;;;1.42;;
9834;SDS011;69850;50.942;13.748;2023-07-16T12:08:54;3.72;;;2.15;;
9834;SDS011;69850;50.942;13.748;2023-07-16T12:12:15;3.33;;;1.90;;
9834;SDS011;69850;50.942;13.748;2023-07-16T12:15:36;5.55;;;2.10;;
9834;SDS011;69850;50.942;13.748;2023-07-16T12:18:56;4.18;;;2.15;;
9834;SDS011;69850;50.942;13.748;2023-07-16T12:22:17;3.45;;;2.33;;
9834;SDS011;69850;50.942;13.748;2023-07-16T12:25:38;6.88;;;2.30;;
9834;SDS011;69850;50.942;13.748;2023-07-16T12:28:59;4.15;;;2.70;;
9834;SDS011;69850;50.942;13.748;2023-07-16T12:32:23;3.67;;;2.30;;
9834;SDS011;69850;50.942;13.748;2023-07-16T12:35:43;4.25;;;2.58;;
9834;SDS011;69850;50.942;13.748;2023-07-16T12:39:04;4.72;;;2.42;;
9834;SDS011;69850;50.942;13.748;2023-07-16T12:42:25;4.57;;;2.60;;
9834;SDS011;69850;50.942;13.748;2023-07-16T12:45:45;3.67;;;2.00;;
9834;SDS011;69850;50.942;13.748;2023-07-16T12:49:06;3.03;;;1.92;;
9834;SDS011;69850;50.942;13.748;2023-07-16T12:52:27;3.17;;;2.15;;
9834;SDS011;69850;50.942;13.748;2023-07-16T12:55:47;3.00;;;2.05;;
9834;SDS011;69850;50.942;13.748;2023-07-16T12:59:08;4.72;;;2.20;;
9834;SDS011;69850;50.942;13.748;2023-07-16T13:02:29;4.95;;;2.10;;
9834;SDS011;69850;50.942;13.748;2023-07-16T13:05:49;3.50;;;2.10;;
9834;SDS011;69850;50.942;13.748;2023-07-16T13:09:10;2.90;;;2.00;;
9834;SDS011;69850;50.942;13.748;2023-07-16T13:12:31;3.58;;;1.95;;
9834;SDS011;69850;50.942;13.748;2023-07-16T13:15:51;3.25;;;1.92;;
9834;SDS011;69850;50.942;13.748;2023-07-16T13:19:12;3.40;;;2.00;;
9834;SDS011;69850;50.942;13.748;2023-07-16T13:22:33;3.92;;;2.30;;
9834;SDS011;69850;50.942;13.748;2023-07-16T13:25:53;4.57;;;2.25;;
9834;SDS011;69850;50.942;13.748;2023-07-16T13:29:16;3.63;;;2.25;;
9834;SDS011;69850;50.942;13.748;2023-07-16T13:32:36;4.18;;;2.30;;
9834;SDS011;69850;50.942;13.748;2023-07-16T13:35:57;4.53;;;2.00;;
9834;SDS011;69850;50.942;13.748;2023-07-16T13:39:21;3.30;;;2.13;;
9834;SDS011;69850;50.942;13.748;2023-07-16T13:42:42;4.13;;;2.40;;
9834;SDS011;69850;50.942;13.748;2023-07-16T13:46:03;4.57;;;2.20;;
9834;SDS011;69850;50.942;13.748;2023-07-16T13:49:24;5.30;;;3.10;;
9834;SDS011;69850;50.942;13.748;2023-07-16T13:52:44;5.63;;;4.20;;
9834;SDS011;69850;50.942;13.748;2023-07-16T13:56:05;2.72;;;1.92;;
9834;SDS011;69850;50.942;13.748;2023-07-16T13:59:26;2.42;;;2.05;;
9834;SDS011;69850;50.942;13.748;2023-07-16T14:02:46;3.38;;;2.30;;
9834;SDS011;69850;50.942;13.748;2023-07-16T14:06:07;4.80;;;2.60;;
9834;SDS011;69850;50.942;13.748;2023-07-16T14:09:28;6.40;;;3.88;;
9834;SDS011;69850;50.942;13.748;2023-07-16T14:12:48;4.82;;;2.60;;
9834;SDS011;69850;50.942;13.748;2023-07-16T14:16:10;5.82;;;2.65;;
9834;SDS011;69850;50.942;13.748;2023-07-16T14:19:30;3.95;;;2.33;;
9834;SDS011;69850;50.942;13.748;2023-07-16T14:22:51;2.92;;;2.35;;
9834;SDS011;69850;50.942;13.748;2023-07-16T14:26:12;5.00;;;2.50;;
9834;SDS011;69850;50.942;13.748;2023-07-16T14:29:34;5.45;;;2.47;;
9834;SDS011;69850;50.942;13.748;2023-07-16T14:32:55;2.95;;;2.25;;
9834;SDS011;69850;50.942;13.748;2023-07-16T14:36:16;4.93;;;2.53;;
9834;SDS011;69850;50.942;13.748;2023-07-16T14:39:36;4.13;;;2.45;;
9834;SDS011;69850;50.942;13.748;2023-07-16T14:42:57;4.05;;;2.47;;
9834;SDS011;69850;50.942;13.748;2023-07-16T14:46:18;5.15;;;3.20;;
9834;SDS011;69850;50.942;13.748;2023-07-16T14:49:39;8.57;;;4.28;;
9834;SDS011;69850;50.942;13.748;2023-07-16T14:52:59;2.53;;;2.33;;
9834;SDS011;69850;50.942;13.748;2023-07-16T14:56:20;3.95;;;2.33;;
9834;SDS011;69850;50.942;13.748;2023-07-16T14:59:43;4.35;;;2.33;;
9834;SDS011;69850;50.942;13.748;2023-07-16T15:03:04;5.32;;;3.45;;
9834;SDS011;69850;50.942;13.748;2023-07-16T15:06:26;4.85;;;2.50;;
9834;SDS011;69850;50.942;13.748;2023-07-16T15:09:46;4.10;;;2.45;;
9834;SDS011;69850;50.942;13.748;2023-07-16T15:13:08;2.42;;;1.88;;
9834;SDS011;69850;50.942;13.748;2023-07-16T15:16:28;4.20;;;1.90;;
9834;SDS011;69850;50.942;13.748;2023-07-16T15:19:49;2.83;;;1.95;;
9834;SDS011;69850;50.942;13.748;2023-07-16T15:23:11;4.28;;;2.45;;
9834;SDS011;69850;50.942;13.748;2023-07-16T15:26:32;5.88;;;2.60;;
9834;SDS011;69850;50.942;13.748;2023-07-16T15:29:53;6.38;;;2.15;;
9834;SDS011;69850;50.942;13.748;2023-07-16T15:33:14;6.00;;;2.10;;
9834;SDS011;69850;50.942;13.748;2023-07-16T15:36:34;4.57;;;2.20;;
9834;SDS011;69850;50.942;13.748;2023-07-16T15:39:55;4.68;;;2.35;;
9834;SDS011;69850;50.942;13.748;2023-07-16T15:43:17;4.65;;;2.13;;
9834;SDS011;69850;50.942;13.748;2023-07-16T15:46:38;4.30;;;1.92;;
9834;SDS011;69850;50.942;13.748;2023-07-16T15:49:59;6.57;;;2.10;;
9834;SDS011;69850;50.942;13.748;2023-07-16T15:53:19;5.32;;;2.15;;
9834;SDS011;69850;50.942;13.748;2023-07-16T15:56:40;2.97;;;1.80;;
9834;SDS011;69850;50.942;13.748;2023-07-16T16:00:01;3.95;;;1.58;;
9834;SDS011;69850;50.942;13.748;2023-07-16T16:03:32;3.70;;;1.92;;
9834;SDS011;69850;50.942;13.748;2023-07-16T16:06:52;4.72;;;1.90;;
9834;SDS011;69850;50.942;13.748;2023-07-16T16:10:13;4.03;;;2.20;;
9834;SDS011;69850;50.942;13.748;2023-07-16T16:13:34;4.28;;;1.90;;
9834;SDS011;69850;50.942;13.748;2023-07-16T16:16:55;5.20;;;2.00;;
9834;SDS011;69850;50.942;13.748;2023-07-16T16:20:16;3.45;;;1.85;;
9834;SDS011;69850;50.942;13.748;2023-07-16T16:23:36;5.53;;;1.70;;
9834;SDS011;69850;50.942;13.748;2023-07-16T16:26:57;4.20;;;1.60;;
9834;SDS011;69850;50.942;13.748;2023-07-16T16:30:18;3.28;;;2.10;;
9834;SDS011;69850;50.942;13.748;2023-07-16T16:33:38;4.53;;;2.20;;
9834;SDS011;69850;50.942;13.748;2023-07-16T16:36:59;6.75;;;2.40;;
9834;SDS011;69850;50.942;13.748;2023-07-16T16:40:20;3.67;;;2.05;;
9834;SDS011;69850;50.942;13.748;2023-07-16T16:43:41;6.15;;;2.28;;
9834;SDS011;69850;50.942;13.748;2023-07-16T16:47:02;4.55;;;2.20;;
9834;SDS011;69850;50.942;13.748;2023-07-16T16:50:23;4.65;;;2.25;;
9834;SDS011;69850;50.942;13.748;2023-07-16T16:53:43;4.97;;;2.03;;
9834;SDS011;69850;50.942;13.748;2023-07-16T16:57:04;2.55;;;1.80;;
9834;SDS011;69850;50.942;13.748;2023-07-16T17:00:25;5.10;;;1.80;;
9834;SDS011;69850;50.942;13.748;2023-07-16T17:03:46;6.78;;;3.30;;
9834;SDS011;69850;50.942;13.748;2023-07-16T17:07:07;6.65;;;2.70;;
9834;SDS011;69850;50.942;13.748;2023-07-16T17:10:29;3.92;;;2.17;;
9834;SDS011;69850;50.942;13.748;2023-07-16T17:13:49;19.58;;;3.25;;
9834;SDS011;69850;50.942;13.748;2023-07-16T17:17:10;6.45;;;2.30;;
9834;SDS011;69850;50.942;13.748;2023-07-16T17:20:31;5.05;;;2.72;;
9834;SDS011;69850;50.942;13.748;2023-07-16T17:23:52;4.97;;;3.00;;
9834;SDS011;69850;50.942;13.748;2023-07-16T17:27:13;6.28;;;2.65;;
9834;SDS011;69850;50.942;13.748;2023-07-16T17:30:36;5.25;;;2.75;;
9834;SDS011;69850;50.942;13.748;2023-07-16T17:33:57;4.88;;;2.22;;
9834;SDS011;69850;50.942;13.748;2023-07-16T17:37:18;3.13;;;2.10;;
9834;SDS011;69850;50.942;13.748;2023-07-16T17:40:38;6.10;;;2.08;;
9834;SDS011;69850;50.942;13.748;2023-07-16T17:43:59;3.45;;;2.00;;
9834;SDS011;69850;50.942;13.748;2023-07-16T17:47:20;4.53;;;2.25;;
9834;SDS011;69850;50.942;13.748;2023-07-16T17:50:40;4.90;;;2.17;;
9834;SDS011;69850;50.942;13.748;2023-07-16T17:54:01;3.53;;;1.90;;
9834;SDS011;69850;50.942;13.748;2023-07-16T17:57:23;4.47;;;2.30;;
9834;SDS011;69850;50.942;13.748;2023-07-16T18:00:43;3.42;;;2.20;;
9834;SDS011;69850;50.942;13.748;2023-07-16T18:04:04;3.90;;;2.40;;
9834;SDS011;69850;50.942;13.748;2023-07-16T18:07:25;4.05;;;2.30;;
9834;SDS011;69850;50.942;13.748;2023-07-16T18:10:45;4.05;;;2.25;;
9834;SDS011;69850;50.942;13.748;2023-07-16T18:14:06;5.82;;;2.30;;
9834;SDS011;69850;50.942;13.748;2023-07-16T18:17:27;4.88;;;2.67;;
9834;SDS011;69850;50.942;13.748;2023-07-16T18:20:47;4.57;;;2.30;;
9834;SDS011;69850;50.942;13.748;2023-07-16T18:24:08;5.20;;;2.67;;
9834;SDS011;69850;50.942;13.748;2023-07-16T18:27:29;4.15;;;2.40;;
9834;SDS011;69850;50.942;13.748;2023-07-16T18:30:49;5.85;;;2.60;;
9834;SDS011;69850;50.942;13.748;2023-07-16T18:34:10;9.98;;;2.50;;
9834;SDS011;69850;50.942;13.748;2023-07-16T18:37:31;3.65;;;2.50;;
9834;SDS011;69850;50.942;13.748;2023-07-16T18:40:51;4.28;;;2.15;;
9834;SDS011;69850;50.942;13.748;2023-07-16T18:44:12;9.95;;;2.67;;
9834;SDS011;69850;50.942;13.748;2023-07-16T18:47:33;12.57;;;2.83;;
9834;SDS011;69850;50.942;13.748;2023-07-16T18:50:53;7.65;;;2.50;;
9834;SDS011;69850;50.942;13.748;2023-07-16T18:54:20;5.93;;;2.65;;
9834;SDS011;69850;50.942;13.748;2023-07-16T18:57:40;5.72;;;2.60;;
9834;SDS011;69850;50.942;13.748;2023-07-16T19:01:04;4.57;;;2.50;;
9834;SDS011;69850;50.942;13.748;2023-07-16T19:04:25;9.30;;;4.82;;
9834;SDS011;69850;50.942;13.748;2023-07-16T19:07:47;6.32;;;4.50;;
9834;SDS011;69850;50.942;13.748;2023-07-16T19:11:07;6.20;;;3.20;;
9834;SDS011;69850;50.942;13.748;2023-07-16T19:14:28;5.32;;;2.78;;
9834;SDS011;69850;50.942;13.748;2023-07-16T19:17:49;9.20;;;3.30;;
9834;SDS011;69850;50.942;13.748;2023-07-16T19:21:09;8.43;;;2.42;;
9834;SDS011;69850;50.942;13.748;2023-07-16T19:24:30;11.82;;;3.75;;
9834;SDS011;69850;50.942;13.748;2023-07-16T19:27:51;7.82;;;3.30;;
9834;SDS011;69850;50.942;13.748;2023-07-16T19:31:11;7.05;;;3.22;;
9834;SDS011;69850;50.942;13.748;2023-07-16T19:34:33;8.07;;;2.83;;
9834;SDS011;69850;50.942;13.748;2023-07-16T19:37:54;8.82;;;2.90;;
9834;SDS011;69850;50.942;13.748;2023-07-16T19:41:15;6.13;;;2.90;;
9834;SDS011;69850;50.942;13.748;2023-07-16T19:44:36;5.28;;;2.70;;
9834;SDS011;69850;50.942;13.748;2023-07-16T19:47:56;7.30;;;2.60;;
9834;SDS011;69850;50.942;13.748;2023-07-16T19:51:19;5.78;;;3.20;;
9834;SDS011;69850;50.942;13.748;2023-07-16T19:54:40;4.85;;;2.90;;
9834;SDS011;69850;50.942;13.748;2023-07-16T19:58:02;6.20;;;3.00;;
9834;SDS011;69850;50.942;13.748;2023-07-16T20:01:23;4.03;;;2.83;;
9834;SDS011;69850;50.942;13.748;2023-07-16T20:04:44;7.53;;;2.85;;
9834;SDS011;69850;50.942;13.748;2023-07-16T20:08:05;5.50;;;2.75;;
9834;SDS011;69850;50.942;13.748;2023-07-16T20:11:30;6.70;;;3.08;;
9834;SDS011;69850;50.942;13.748;2023-07-16T20:14:51;5.70;;;3.00;;
9834;SDS011;69850;50.942;13.748;2023-07-16T20:18:13;6.05;;;3.05;;
9834;SDS011;69850;50.942;13.748;2023-07-16T20:21:34;6.53;;;3.08;;
9834;SDS011;69850;50.942;13.748;2023-07-16T20:24:54;10.35;;;3.60;;